Time;durP1;ratioP1;P1;durP2;ratioP2;P2;SDS_P1;SDS_P2;PMS_P1;PMS_P2;Temp;Humidity;BMP_temperature;BMP_pressure;BME280_temperature;BME280_humidity;BME280_pressure;Samples;Min_cycle;Max_cycle;Signal;HPM_P1;HPM_P2
2022/01/09 00:00:16;;;;;;;;;;;2.40;99.90;;;;;;5094302;28;19908;-45
2022/01/09 00:02:42;;;;;;;;;;;2.40;99.90;;;;;;5094713;28;19912;-48
2022/01/09 00:05:07;;;;;;;;;;;2.40;99.90;;;;;;5094860;28;20318;-48
2022/01/09 00:07:33;;;;;;;;;;;2.50;99.90;;;;;;5094614;28;19922;-46
2022/01/09 00:09:58;;;;;;;;;;;2.50;99.90;;;;;;5094516;28;20339;-46
2022/01/09 00:12:24;;;;;;;;;;;2.50;99.90;;;;;;5094669;28;19969;-49
2022/01/09 00:14:50;;;;;;;;;;;2.60;99.90;;;;;;5094484;28;19916;-48
2022/01/09 00:17:16;;;;;;;;;;;2.60;99.90;;;;;;5094497;28;20048;-49
2022/01/09 00:19:41;;;;;;;;;;;2.70;99.90;;;;;;5076394;28;19916;-48
2022/01/09 00:22:07;;;;;;;;;;;2.70;99.90;;;;;;5093950;28;20358;-47
2022/01/09 00:24:33;;;;;;;;;;;2.70;99.90;;;;;;5094384;28;19912;-50
2022/01/09 00:26:58;;;;;;;;;;;2.70;99.90;;;;;;5094190;28;19915;-47
2022/01/09 00:29:24;;;;;;;;;;;2.80;99.90;;;;;;5094140;28;20247;-48
2022/01/09 00:31:49;;;;;;;;;;;2.80;99.90;;;;;;5094324;28;19942;-51
2022/01/09 00:34:15;;;;;;;;;;;2.70;99.90;;;;;;5094277;28;19926;-49
2022/01/09 00:36:40;;;;;;;;;;;2.70;99.90;;;;;;5094033;28;19997;-49
2022/01/09 00:39:06;;;;;;;;;;;2.70;99.90;;;;;;5094015;28;19915;-46
2022/01/09 00:41:31;;;;;;;;;;;2.70;99.90;;;;;;5094167;28;19959;-50
2022/01/09 00:43:57;;;;;;;;;;;2.70;99.90;;;;;;5094136;28;19912;-46
2022/01/09 00:46:22;;;;;;;;;;;2.70;99.90;;;;;;5094201;28;19908;-49
2022/01/09 00:48:48;;;;;;;;;;;2.60;99.90;;;;;;5094022;28;19908;-46
2022/01/09 00:51:13;;;;;;;;;;;2.60;99.90;;;;;;5093660;28;20388;-50
2022/01/09 00:53:39;;;;;;;;;;;2.70;99.90;;;;;;5095456;28;19957;-48
2022/01/09 00:56:04;;;;;;;;;;;2.70;99.90;;;;;;5100858;28;20131;-48
2022/01/09 00:58:30;;;;;;;;;;;2.80;99.90;;;;;;5100691;28;19912;-50
2022/01/09 01:00:55;;;;;;;;;;;2.60;99.90;;;;;;5100462;28;19908;-50
2022/01/09 01:03:21;;;;;;;;;;;2.60;99.90;;;;;;5100745;28;20025;-48
2022/01/09 01:05:47;;;;;;;;;;;2.70;99.90;;;;;;5100862;28;19912;-46
2022/01/09 01:08:12;;;;;;;;;;;2.90;99.90;;;;;;5100732;28;20346;-47
2022/01/09 01:10:38;;;;;;;;;;;2.90;99.90;;;;;;5100731;28;20308;-46
2022/01/09 01:13:03;;;;;;;;;;;2.80;99.90;;;;;;5100568;28;19962;-47
2022/01/09 01:15:29;;;;;;;;;;;2.80;99.90;;;;;;5100460;28;19908;-50
2022/01/09 01:17:55;;;;;;;;;;;2.90;99.90;;;;;;5100659;28;20354;-49
2022/01/09 01:20:22;;;;;;;;;;;2.90;99.90;;;;;;5100400;28;20381;-47
2022/01/09 01:22:50;;;;;;;;;;;3.00;99.90;;;;;;5100575;28;19912;-48
2022/01/09 01:25:16;;;;;;;;;;;3.00;99.90;;;;;;5100235;28;19924;-45
2022/01/09 01:27:42;;;;;;;;;;;3.00;99.90;;;;;;5100567;28;19908;-47
2022/01/09 01:30:08;;;;;;;;;;;3.00;99.90;;;;;;5100261;28;19926;-47
2022/01/09 01:32:33;;;;;;;;;;;3.00;99.90;;;;;;5082143;28;20358;-46
2022/01/09 01:34:59;;;;;;;;;;;3.00;99.90;;;;;;5100405;28;19919;-46
2022/01/09 01:37:25;;;;;;;;;;;2.90;99.90;;;;;;5100291;28;19912;-48
2022/01/09 01:39:50;;;;;;;;;;;2.90;99.90;;;;;;5100200;28;19908;-48
2022/01/09 01:42:16;;;;;;;;;;;3.00;99.90;;;;;;5100129;28;19912;-45
2022/01/09 01:44:43;;;;;;;;;;;3.10;99.90;;;;;;5100154;28;19961;-46
2022/01/09 01:47:09;;;;;;;;;;;3.00;99.90;;;;;;5100232;28;19961;-49
2022/01/09 01:49:34;;;;;;;;;;;3.10;99.90;;;;;;5100073;28;20352;-48
2022/01/09 01:52:00;;;;;;;;;;;3.10;99.90;;;;;;5100286;28;19958;-48
2022/01/09 01:54:27;;;;;;;;;;;3.00;99.90;;;;;;5100519;28;19919;-45
2022/01/09 01:56:53;;;;;;;;;;;3.10;99.90;;;;;;5100048;28;20017;-47
2022/01/09 01:59:18;;;;;;;;;;;3.10;99.90;;;;;;5100251;28;19971;-47
2022/01/09 02:01:44;;;;;;;;;;;3.10;99.90;;;;;;5100213;28;19934;-47
2022/01/09 02:04:09;;;;;;;;;;;3.20;99.90;;;;;;5099841;28;19912;-47
2022/01/09 02:06:35;;;;;;;;;;;3.20;99.90;;;;;;5096526;28;19916;-48
2022/01/09 02:09:03;;;;;;;;;;;3.10;99.90;;;;;;5096749;28;19916;-47
2022/01/09 02:11:29;;;;;;;;;;;3.10;99.90;;;;;;5096898;28;19908;-47
2022/01/09 02:13:55;;;;;;;;;;;3.20;99.90;;;;;;5096518;28;19909;-46
2022/01/09 02:16:21;;;;;;;;;;;3.10;99.90;;;;;;5092294;28;19957;-49
2022/01/09 02:18:46;;;;;;;;;;;3.20;99.90;;;;;;5080747;28;19954;-49
2022/01/09 02:21:13;;;;;;;;;;;3.00;99.90;;;;;;5078042;28;19909;-49
2022/01/09 02:23:40;;;;;;;;;;;3.10;99.90;;;;;;5094989;28;19916;-48
2022/01/09 02:26:06;;;;;;;;;;;3.00;99.90;;;;;;5094901;28;19923;-46
2022/01/09 02:28:32;;;;;;;;;;;3.20;99.90;;;;;;5094953;28;19913;-45
2022/01/09 02:30:57;;;;;;;;;;;3.20;99.90;;;;;;5095271;28;20006;-45
2022/01/09 02:33:23;;;;;;;;;;;3.20;99.90;;;;;;5089698;28;19927;-47
2022/01/09 02:35:51;;;;;;;;;;;3.20;99.90;;;;;;5095112;28;19984;-49
2022/01/09 02:38:16;;;;;;;;;;;3.30;99.90;;;;;;5092737;28;19908;-47
2022/01/09 02:40:42;;;;;;;;;;;3.30;99.90;;;;;;5094950;28;19930;-47
2022/01/09 02:43:07;;;;;;;;;;;3.30;99.90;;;;;;5094622;28;20380;-48
2022/01/09 02:45:33;;;;;;;;;;;3.30;99.90;;;;;;5094829;28;19947;-47
2022/01/09 02:48:01;;;;;;;;;;;3.30;99.90;;;;;;5094852;28;20002;-50
2022/01/09 02:50:38;;;;;;;;;;;3.30;99.90;;;;;;5094737;28;19908;-46
2022/01/09 02:53:15;;;;;;;;;;;3.20;99.90;;;;;;5094448;28;20389;-47
2022/01/09 02:55:41;;;;;;;;;;;3.20;99.90;;;;;;5094436;28;19920;-49
2022/01/09 02:58:07;;;;;;;;;;;3.30;99.90;;;;;;5094743;28;19908;-47
2022/01/09 03:00:37;;;;;;;;;;;3.30;99.90;;;;;;5090191;28;19912;-45
2022/01/09 03:03:03;;;;;;;;;;;3.30;99.90;;;;;;5076178;28;20373;-47
2022/01/09 03:05:29;;;;;;;;;;;3.30;99.90;;;;;;5092538;28;19912;-47
2022/01/09 03:07:55;;;;;;;;;;;3.20;99.90;;;;;;5094459;28;19908;-48
2022/01/09 03:10:21;;;;;;;;;;;3.20;99.90;;;;;;5094043;28;19919;-50
2022/01/09 03:12:47;;;;;;;;;;;3.10;99.90;;;;;;5093882;28;20379;-46
2022/01/09 03:15:13;;;;;;;;;;;3.10;99.90;;;;;;5091254;28;19908;-45
2022/01/09 03:17:38;;;;;;;;;;;3.20;99.90;;;;;;5093191;28;19916;-47
2022/01/09 03:20:05;;;;;;;;;;;3.20;99.90;;;;;;5076741;28;19919;-44
2022/01/09 03:22:30;;;;;;;;;;;3.20;99.90;;;;;;5094250;28;20262;-45
2022/01/09 03:24:56;;;;;;;;;;;3.10;99.90;;;;;;5094228;28;19916;-47
2022/01/09 03:27:21;;;;;;;;;;;3.20;99.90;;;;;;5093816;28;19914;-48
2022/01/09 03:29:48;;;;;;;;;;;3.20;99.90;;;;;;5094318;28;19950;-49
2022/01/09 03:32:14;;;;;;;;;;;3.20;99.90;;;;;;5093712;28;20354;-49
2022/01/09 03:34:39;;;;;;;;;;;3.20;99.90;;;;;;5093842;28;19912;-50
2022/01/09 03:37:05;;;;;;;;;;;3.20;99.90;;;;;;5090478;28;19920;-46
2022/01/09 03:39:31;;;;;;;;;;;3.10;99.90;;;;;;5093622;28;19908;-47
2022/01/09 03:41:58;;;;;;;;;;;3.20;99.90;;;;;;5092461;28;19963;-48
2022/01/09 03:44:24;;;;;;;;;;;3.20;99.90;;;;;;5093699;28;19912;-47
2022/01/09 03:46:50;;;;;;;;;;;3.10;99.90;;;;;;5093748;28;19908;-48
2022/01/09 03:49:15;;;;;;;;;;;3.10;99.90;;;;;;5093401;28;20281;-45
2022/01/09 03:51:44;;;;;;;;;;;3.20;99.90;;;;;;5093455;28;19909;-47
2022/01/09 03:54:09;;;;;;;;;;;3.20;99.90;;;;;;5093785;28;19998;-48
2022/01/09 03:56:35;;;;;;;;;;;3.20;99.90;;;;;;5094624;28;20017;-47
2022/01/09 03:59:00;;;;;;;;;;;3.20;99.90;;;;;;5093677;28;19909;-47
2022/01/09 04:01:26;;;;;;;;;;;3.10;99.90;;;;;;5088989;28;19908;-50
2022/01/09 04:03:52;;;;;;;;;;;3.20;99.90;;;;;;5093302;28;20274;-48
2022/01/09 04:06:18;;;;;;;;;;;3.00;99.90;;;;;;5093375;28;19908;-47
2022/01/09 04:08:43;;;;;;;;;;;3.00;99.90;;;;;;5093144;28;19935;-47
2022/01/09 04:11:09;;;;;;;;;;;2.90;99.90;;;;;;5087112;28;19952;-46
2022/01/09 04:13:36;;;;;;;;;;;2.90;99.90;;;;;;5092962;28;19965;-50
2022/01/09 04:16:01;;;;;;;;;;;3.00;99.90;;;;;;5087081;28;19934;-47
2022/01/09 04:18:28;;;;;;;;;;;3.10;99.90;;;;;;5092769;28;19908;-50
2022/01/09 04:20:54;;;;;;;;;;;3.10;99.90;;;;;;5092916;28;20278;-48
2022/01/09 04:23:21;;;;;;;;;;;3.20;99.90;;;;;;5093121;28;19928;-49
2022/01/09 04:25:46;;;;;;;;;;;3.20;99.90;;;;;;5092734;28;20011;-47
2022/01/09 04:28:13;;;;;;;;;;;3.30;99.90;;;;;;5092566;28;20375;-45
2022/01/09 04:30:39;;;;;;;;;;;3.30;99.90;;;;;;5092807;28;19943;-46
2022/01/09 04:33:05;;;;;;;;;;;3.30;99.90;;;;;;5074336;28;19974;-47
2022/01/09 04:35:31;;;;;;;;;;;3.40;99.90;;;;;;5073929;28;19904;-46
2022/01/09 04:37:57;;;;;;;;;;;3.30;99.90;;;;;;5093634;28;19904;-45
2022/01/09 04:40:23;;;;;;;;;;;3.30;99.90;;;;;;5094543;28;19904;-46
2022/01/09 04:43:00;;;;;;;;;;;3.30;99.90;;;;;;5092131;28;19908;-47
2022/01/09 04:45:28;;;;;;;;;;;3.30;99.90;;;;;;5091993;28;19980;-46
2022/01/09 04:47:55;;;;;;;;;;;3.30;99.90;;;;;;5092145;28;19949;-49
2022/01/09 04:50:27;;;;;;;;;;;3.20;99.90;;;;;;5092075;28;19925;-51
2022/01/09 04:52:58;;;;;;;;;;;3.20;99.90;;;;;;5073976;28;19904;-51
2022/01/09 04:55:24;;;;;;;;;;;3.20;99.90;;;;;;5091759;28;20357;-49
2022/01/09 04:57:50;;;;;;;;;;;3.20;99.90;;;;;;5093851;28;19948;-51
2022/01/09 05:00:15;;;;;;;;;;;3.30;99.90;;;;;;5094055;28;19915;-46
2022/01/09 05:02:41;;;;;;;;;;;3.30;99.90;;;;;;5093726;28;19916;-47
2022/01/09 05:05:08;;;;;;;;;;;3.30;99.90;;;;;;5094035;28;19991;-49
2022/01/09 05:07:34;;;;;;;;;;;3.30;99.90;;;;;;5094397;28;19957;-47
2022/01/09 05:09:59;;;;;;;;;;;3.30;99.90;;;;;;5094149;28;19908;-48
2022/01/09 05:12:25;;;;;;;;;;;3.40;99.90;;;;;;5093819;28;20261;-45
2022/01/09 05:14:50;;;;;;;;;;;3.50;99.90;;;;;;5093783;28;19912;-48
2022/01/09 05:17:16;;;;;;;;;;;3.60;99.90;;;;;;5094072;28;19908;-46
2022/01/09 05:19:42;;;;;;;;;;;3.70;99.90;;;;;;5093731;28;19911;-49
2022/01/09 05:22:08;;;;;;;;;;;3.80;99.90;;;;;;5093920;28;19915;-47
2022/01/09 05:24:34;;;;;;;;;;;3.90;99.90;;;;;;5093965;28;19908;-46
2022/01/09 05:27:00;;;;;;;;;;;3.90;99.90;;;;;;5093792;28;19904;-49
2022/01/09 05:29:25;;;;;;;;;;;3.90;99.90;;;;;;5093495;28;20346;-46
2022/01/09 05:31:51;;;;;;;;;;;3.90;99.90;;;;;;5094002;28;19923;-46
2022/01/09 05:34:17;;;;;;;;;;;4.00;99.90;;;;;;5093612;28;19904;-49
2022/01/09 05:36:43;;;;;;;;;;;4.00;99.90;;;;;;5093397;28;20369;-47
2022/01/09 05:39:09;;;;;;;;;;;4.00;99.90;;;;;;5094073;28;19905;-45
2022/01/09 05:41:35;;;;;;;;;;;3.90;99.90;;;;;;5095689;28;19969;-50
2022/01/09 05:44:00;;;;;;;;;;;4.00;99.90;;;;;;5097366;28;19914;-46
2022/01/09 05:46:26;;;;;;;;;;;4.10;99.90;;;;;;5097437;28;19904;-47
2022/01/09 05:48:51;;;;;;;;;;;4.20;99.90;;;;;;5097026;28;19957;-45
2022/01/09 05:51:17;;;;;;;;;;;4.10;99.90;;;;;;5097361;28;19927;-48
2022/01/09 05:53:43;;;;;;;;;;;4.20;99.90;;;;;;5097061;28;19935;-49
2022/01/09 05:56:08;;;;;;;;;;;4.10;99.90;;;;;;5097466;28;20357;-45
2022/01/09 05:58:35;;;;;;;;;;;4.20;99.90;;;;;;5097018;28;19911;-48
2022/01/09 06:01:02;;;;;;;;;;;4.20;99.90;;;;;;5079035;28;19904;-48
2022/01/09 06:03:27;;;;;;;;;;;4.20;99.90;;;;;;5097057;28;19908;-51
2022/01/09 06:05:53;;;;;;;;;;;4.20;99.90;;;;;;5096707;28;20001;-49
2022/01/09 06:08:18;;;;;;;;;;;4.30;99.90;;;;;;5096625;28;19910;-47
2022/01/09 06:10:44;;;;;;;;;;;4.30;99.90;;;;;;5096711;28;19904;-46
2022/01/09 06:13:09;;;;;;;;;;;4.30;99.90;;;;;;5096937;28;19904;-48
2022/01/09 06:15:35;;;;;;;;;;;4.30;99.90;;;;;;5096975;28;20293;-48
2022/01/09 06:18:00;;;;;;;;;;;4.30;99.90;;;;;;5096632;28;19904;-49
2022/01/09 06:20:26;;;;;;;;;;;4.30;99.90;;;;;;5096902;28;19908;-48
2022/01/09 06:22:51;;;;;;;;;;;4.30;99.90;;;;;;5096733;28;19961;-50
2022/01/09 06:25:17;;;;;;;;;;;4.20;99.90;;;;;;5096766;28;19908;-50
2022/01/09 06:27:42;;;;;;;;;;;4.10;99.90;;;;;;5096626;28;19904;-48
2022/01/09 06:30:08;;;;;;;;;;;4.00;99.90;;;;;;5096773;28;19916;-46
2022/01/09 06:32:34;;;;;;;;;;;3.90;99.90;;;;;;5096595;28;19904;-50
2022/01/09 06:34:59;;;;;;;;;;;3.80;99.90;;;;;;5096648;28;19904;-46
2022/01/09 06:37:25;;;;;;;;;;;3.90;99.90;;;;;;5096191;28;19908;-48
2022/01/09 06:39:50;;;;;;;;;;;3.90;99.90;;;;;;5096201;28;19987;-48
2022/01/09 06:42:16;;;;;;;;;;;3.90;99.90;;;;;;5078363;28;19908;-47
2022/01/09 06:44:41;;;;;;;;;;;3.90;99.90;;;;;;5096787;28;20058;-46
2022/01/09 06:47:07;;;;;;;;;;;3.90;99.90;;;;;;5096455;28;19904;-48
2022/01/09 06:49:34;;;;;;;;;;;3.80;99.90;;;;;;5096286;28;19904;-50
2022/01/09 06:52:00;;;;;;;;;;;3.90;99.90;;;;;;5095651;28;19904;-45
2022/01/09 06:54:25;;;;;;;;;;;3.90;99.90;;;;;;5095909;28;20376;-50
2022/01/09 06:56:51;;;;;;;;;;;3.80;99.90;;;;;;5096068;28;19910;-49
2022/01/09 06:59:16;;;;;;;;;;;3.80;99.90;;;;;;5096088;28;19919;-48
2022/01/09 07:01:42;;;;;;;;;;;3.80;99.90;;;;;;5096002;28;20346;-47
2022/01/09 07:04:07;;;;;;;;;;;3.80;99.90;;;;;;5095989;28;19963;-46
2022/01/09 07:06:34;;;;;;;;;;;3.80;99.90;;;;;;5095535;28;19904;-47
2022/01/09 07:08:59;;;;;;;;;;;3.80;99.90;;;;;;5095859;28;19957;-47
2022/01/09 07:11:25;;;;;;;;;;;3.80;99.90;;;;;;5095496;28;19908;-48
2022/01/09 07:13:50;;;;;;;;;;;3.80;99.90;;;;;;5095710;28;19904;-47
2022/01/09 07:16:16;;;;;;;;;;;3.70;99.90;;;;;;5095718;28;19904;-47
2022/01/09 07:18:41;;;;;;;;;;;3.70;99.90;;;;;;5096055;28;19911;-48
2022/01/09 07:21:07;;;;;;;;;;;3.70;99.90;;;;;;5095747;28;19904;-48
2022/01/09 07:23:32;;;;;;;;;;;3.70;99.90;;;;;;5095256;28;19915;-45
2022/01/09 07:25:58;;;;;;;;;;;3.60;99.90;;;;;;5095435;28;19908;-51
2022/01/09 07:28:23;;;;;;;;;;;3.50;99.90;;;;;;5095546;28;19999;-48
2022/01/09 07:30:49;;;;;;;;;;;3.50;99.90;;;;;;5094826;28;20009;-50
2022/01/09 07:33:14;;;;;;;;;;;3.40;99.90;;;;;;5095089;28;19911;-47
2022/01/09 07:35:40;;;;;;;;;;;3.40;99.90;;;;;;5095445;28;19905;-47
2022/01/09 07:38:06;;;;;;;;;;;3.30;99.90;;;;;;5095230;28;19908;-47
2022/01/09 07:40:31;;;;;;;;;;;3.30;99.90;;;;;;5095289;28;19996;-45
2022/01/09 07:42:57;;;;;;;;;;;3.20;99.90;;;;;;5094016;28;19908;-48
2022/01/09 07:45:26;;;;;;;;;;;3.20;99.90;;;;;;5094847;28;20258;-45
2022/01/09 07:47:52;;;;;;;;;;;3.20;99.90;;;;;;5095171;28;19908;-46
2022/01/09 07:50:18;;;;;;;;;;;3.30;99.90;;;;;;5094618;28;19946;-46
2022/01/09 07:52:43;;;;;;;;;;;3.20;99.90;;;;;;5094180;28;19908;-50
2022/01/09 07:55:09;;;;;;;;;;;3.10;99.90;;;;;;5094313;28;19908;-49
2022/01/09 07:57:35;;;;;;;;;;;3.00;99.90;;;;;;5074375;28;19916;-50
2022/01/09 08:00:04;;;;;;;;;;;3.10;99.90;;;;;;5082060;28;19908;-52
2022/01/09 08:02:29;;;;;;;;;;;3.10;99.90;;;;;;5094082;28;19912;-50
2022/01/09 08:04:55;;;;;;;;;;;3.00;99.90;;;;;;5075351;28;20018;-49
2022/01/09 08:07:21;;;;;;;;;;;3.00;99.90;;;;;;5094552;28;19908;-53
2022/01/09 08:09:49;;;;;;;;;;;3.00;99.90;;;;;;5076401;28;19904;-48
2022/01/09 08:12:15;;;;;;;;;;;3.00;99.90;;;;;;5093652;28;20273;-48
2022/01/09 08:14:40;;;;;;;;;;;3.00;99.90;;;;;;5074610;28;19908;-52
2022/01/09 08:17:06;;;;;;;;;;;2.90;99.90;;;;;;5080027;28;19916;-54
2022/01/09 08:19:33;;;;;;;;;;;3.10;99.90;;;;;;5094176;28;19912;-52
2022/01/09 08:21:58;;;;;;;;;;;3.10;99.90;;;;;;5093694;28;20269;-53
2022/01/09 08:24:24;;;;;;;;;;;3.10;99.90;;;;;;5094339;28;19908;-48
2022/01/09 08:26:50;;;;;;;;;;;3.20;99.90;;;;;;5092449;28;20437;-49
2022/01/09 08:29:16;;;;;;;;;;;3.10;99.90;;;;;;5092535;28;20385;-53
2022/01/09 08:31:42;;;;;;;;;;;3.20;99.90;;;;;;5074150;28;19941;-51
2022/01/09 08:34:07;;;;;;;;;;;3.20;99.90;;;;;;5093887;28;20345;-50
2022/01/09 08:36:33;;;;;;;;;;;3.30;99.90;;;;;;5093432;28;20381;-47
2022/01/09 08:38:59;;;;;;;;;;;3.40;99.90;;;;;;5069654;28;19958;-50
2022/01/09 08:41:24;;;;;;;;;;;3.30;99.90;;;;;;5071150;28;20359;-46
2022/01/09 08:43:50;;;;;;;;;;;3.40;99.90;;;;;;5091686;28;19935;-50
2022/01/09 08:46:16;;;;;;;;;;;3.40;99.90;;;;;;5089247;28;19908;-47
2022/01/09 08:48:41;;;;;;;;;;;3.50;99.90;;;;;;5092888;28;19915;-51
2022/01/09 08:51:07;;;;;;;;;;;3.50;99.90;;;;;;5092855;28;19912;-49
2022/01/09 08:53:35;;;;;;;;;;;3.50;99.90;;;;;;5090451;28;19916;-55
2022/01/09 08:56:04;;;;;;;;;;;3.60;99.90;;;;;;5093593;28;19909;-51
2022/01/09 08:58:29;;;;;;;;;;;3.70;99.90;;;;;;5075840;28;20354;-51
2022/01/09 09:00:55;;;;;;;;;;;3.70;99.90;;;;;;5077184;28;19938;-49
2022/01/09 09:03:22;;;;;;;;;;;3.70;99.90;;;;;;5083526;28;19969;-46
2022/01/09 09:05:47;;;;;;;;;;;3.70;99.90;;;;;;5093705;28;19912;-47
2022/01/09 09:08:13;;;;;;;;;;;3.80;99.90;;;;;;5092728;28;19908;-47
2022/01/09 09:10:38;;;;;;;;;;;3.70;99.90;;;;;;5089751;28;19988;-43
2022/01/09 09:13:04;;;;;;;;;;;3.80;99.90;;;;;;5093020;28;19933;-43
2022/01/09 09:15:29;;;;;;;;;;;3.90;99.90;;;;;;5094848;28;19912;-42
2022/01/09 09:17:55;;;;;;;;;;;3.80;99.90;;;;;;5080073;28;20366;-43
2022/01/09 09:20:21;;;;;;;;;;;3.90;99.90;;;;;;5097780;28;19930;-48
2022/01/09 09:22:47;;;;;;;;;;;4.00;99.90;;;;;;5096961;28;19934;-46
2022/01/09 09:25:13;;;;;;;;;;;3.90;99.90;;;;;;5098304;28;19916;-48
2022/01/09 09:27:38;;;;;;;;;;;3.90;99.90;;;;;;5096662;28;19919;-43
2022/01/09 09:30:05;;;;;;;;;;;4.00;99.90;;;;;;5087349;28;20007;-48
2022/01/09 09:32:31;;;;;;;;;;;3.90;99.90;;;;;;5096180;28;19974;-47
2022/01/09 09:34:57;;;;;;;;;;;3.80;99.90;;;;;;5097157;28;20362;-42
2022/01/09 09:37:23;;;;;;;;;;;3.70;99.90;;;;;;5097030;28;19944;-48
2022/01/09 09:39:51;;;;;;;;;;;3.80;99.90;;;;;;5096211;28;19963;-47
2022/01/09 09:42:16;;;;;;;;;;;3.80;99.90;;;;;;5097308;28;20024;-46
2022/01/09 09:44:42;;;;;;;;;;;3.80;99.90;;;;;;5078998;28;20011;-47
2022/01/09 09:47:09;;;;;;;;;;;3.90;99.90;;;;;;5096549;28;19919;-50
2022/01/09 09:49:34;;;;;;;;;;;3.90;99.90;;;;;;5096779;28;19974;-44
2022/01/09 09:52:00;;;;;;;;;;;3.90;99.90;;;;;;5097069;28;20359;-47
2022/01/09 09:54:25;;;;;;;;;;;3.90;99.90;;;;;;5096473;28;20003;-47
2022/01/09 09:56:52;;;;;;;;;;;3.90;99.90;;;;;;5096795;28;19955;-49
2022/01/09 09:59:25;;;;;;;;;;;3.90;99.90;;;;;;5097081;28;19909;-52
2022/01/09 10:01:51;;;;;;;;;;;4.00;99.90;;;;;;5095904;28;19916;-52
2022/01/09 10:04:17;;;;;;;;;;;4.10;99.90;;;;;;5096307;28;19977;-53
2022/01/09 10:06:44;;;;;;;;;;;4.00;99.90;;;;;;5096334;28;19914;-50
2022/01/09 10:09:14;;;;;;;;;;;3.80;99.90;;;;;;5096408;28;19961;-48
2022/01/09 10:11:41;;;;;;;;;;;3.80;99.90;;;;;;5096024;28;19931;-51
2022/01/09 10:14:15;;;;;;;;;;;3.90;99.90;;;;;;5078486;28;20391;-52
2022/01/09 10:16:41;;;;;;;;;;;3.90;99.90;;;;;;5077878;28;20488;-50
2022/01/09 10:19:07;;;;;;;;;;;3.90;99.90;;;;;;5097124;28;20006;-49
2022/01/09 10:21:32;;;;;;;;;;;3.90;99.90;;;;;;5077107;28;19912;-47
2022/01/09 10:24:03;;;;;;;;;;;3.90;99.90;;;;;;5094980;28;19916;-46
2022/01/09 10:26:30;;;;;;;;;;;4.00;99.90;;;;;;5095304;28;20401;-49
2022/01/09 10:28:55;;;;;;;;;;;3.90;99.90;;;;;;5094795;28;20371;-49
2022/01/09 10:31:21;;;;;;;;;;;3.90;99.90;;;;;;5090794;28;19987;-49
2022/01/09 10:34:06;;;;;;;;;;;4.00;99.90;;;;;;5096213;28;20049;-47
2022/01/09 10:36:32;;;;;;;;;;;4.00;99.90;;;;;;5093552;28;19908;-45
2022/01/09 10:39:01;;;;;;;;;;;4.00;99.90;;;;;;5075727;28;19915;-45
2022/01/09 10:41:43;;;;;;;;;;;4.10;99.90;;;;;;5075703;28;20359;-50
2022/01/09 10:44:13;;;;;;;;;;;4.10;99.90;;;;;;5075813;28;19985;-50
2022/01/09 10:46:39;;;;;;;;;;;4.30;99.90;;;;;;5077057;28;19909;-48
2022/01/09 10:49:05;;;;;;;;;;;4.30;99.90;;;;;;5092066;28;19912;-47
2022/01/09 10:51:30;;;;;;;;;;;4.30;99.90;;;;;;5089602;28;20270;-50
2022/01/09 10:53:58;;;;;;;;;;;4.30;99.90;;;;;;5095007;28;19953;-47
2022/01/09 10:56:25;;;;;;;;;;;4.40;99.90;;;;;;5093752;28;19955;-46
2022/01/09 10:58:59;;;;;;;;;;;4.40;99.90;;;;;;5093679;28;20293;-50
2022/01/09 11:01:31;;;;;;;;;;;4.40;99.90;;;;;;5073894;28;19973;-49
2022/01/09 11:03:57;;;;;;;;;;;4.40;99.90;;;;;;5088643;28;20386;-51
2022/01/09 11:06:24;;;;;;;;;;;4.40;99.90;;;;;;5085096;28;19914;-49
2022/01/09 11:08:50;;;;;;;;;;;4.50;99.90;;;;;;5095003;28;20282;-46
2022/01/09 11:11:25;;;;;;;;;;;4.60;99.90;;;;;;5090999;28;19923;-48
2022/01/09 11:13:53;;;;;;;;;;;4.60;99.90;;;;;;5114421;28;19931;-49
2022/01/09 11:16:34;;;;;;;;;;;4.70;99.90;;;;;;5109977;28;20259;-49
2022/01/09 11:19:00;;;;;;;;;;;4.60;99.90;;;;;;5079767;28;20386;-48
2022/01/09 11:21:25;;;;;;;;;;;4.70;99.90;;;;;;5084804;28;19916;-49
2022/01/09 11:23:57;;;;;;;;;;;4.60;99.90;;;;;;5077253;28;19917;-48
2022/01/09 11:26:27;;;;;;;;;;;4.70;99.90;;;;;;5075189;28;20375;-47
2022/01/09 11:28:55;;;;;;;;;;;4.70;99.90;;;;;;5091450;28;19913;-47
2022/01/09 11:31:40;;;;;;;;;;;4.70;99.90;;;;;;5095048;28;19924;-48
2022/01/09 11:34:13;;;;;;;;;;;4.70;99.90;;;;;;5076288;28;19938;-50
2022/01/09 11:36:41;;;;;;;;;;;4.80;99.90;;;;;;5075476;28;19913;-48
2022/01/09 11:39:27;;;;;;;;;;;4.80;99.90;;;;;;5077596;28;20006;-47
2022/01/09 11:42:19;;;;;;;;;;;4.90;99.90;;;;;;5074511;28;20315;-49
2022/01/09 11:44:52;;;;;;;;;;;5.00;99.90;;;;;;5079697;28;19923;-45
2022/01/09 11:47:18;;;;;;;;;;;5.10;99.90;;;;;;5077367;28;19909;-46
2022/01/09 11:49:53;;;;;;;;;;;5.00;99.90;;;;;;5074571;28;19919;-46
2022/01/09 11:52:19;;;;;;;;;;;5.20;99.90;;;;;;5066318;28;19935;-46
2022/01/09 11:54:48;;;;;;;;;;;5.10;99.90;;;;;;5088418;28;20015;-49
2022/01/09 11:57:20;;;;;;;;;;;5.00;99.90;;;;;;5074658;28;20354;-47
2022/01/09 11:59:48;;;;;;;;;;;4.90;99.90;;;;;;5079093;28;19916;-49
2022/01/09 12:02:13;;;;;;;;;;;5.00;99.90;;;;;;5076660;28;19924;-51
2022/01/09 12:04:45;;;;;;;;;;;5.10;99.90;;;;;;5091237;28;19921;-47
2022/01/09 12:07:11;;;;;;;;;;;5.00;99.90;;;;;;5084190;28;19916;-49
2022/01/09 12:09:37;;;;;;;;;;;4.90;99.90;;;;;;5074639;28;20444;-48
2022/01/09 12:12:02;;;;;;;;;;;4.80;99.90;;;;;;5074457;28;19951;-49
2022/01/09 12:17:39;;;;;;;;;;;4.80;99.90;;;;;;5064258;28;20430;-52
2022/01/09 12:20:08;;;;;;;;;;;4.60;99.90;;;;;;5056489;28;20329;-52
2022/01/09 12:25:22;;;;;;;;;;;4.70;99.90;;;;;;5074056;28;19924;-45
2022/01/09 12:27:53;;;;;;;;;;;4.80;99.90;;;;;;5075830;28;19954;-47
2022/01/09 12:30:41;;;;;;;;;;;4.80;99.90;;;;;;5061557;28;20385;-46
2022/01/09 12:33:09;;;;;;;;;;;4.70;99.90;;;;;;5074185;28;20283;-49
2022/01/09 12:35:39;;;;;;;;;;;4.60;99.90;;;;;;5068920;28;20414;-51
2022/01/09 12:38:05;;;;;;;;;;;4.60;99.90;;;;;;5093216;28;20365;-46
2022/01/09 12:40:32;;;;;;;;;;;4.90;99.90;;;;;;5080111;28;19955;-48
2022/01/09 12:42:59;;;;;;;;;;;5.10;99.90;;;;;;5073118;28;19913;-50
2022/01/09 12:45:25;;;;;;;;;;;5.40;99.90;;;;;;5073659;28;20012;-55
2022/01/09 12:47:51;;;;;;;;;;;5.40;99.90;;;;;;5073059;28;20377;-51
2022/01/09 12:50:24;;;;;;;;;;;5.50;99.90;;;;;;5077540;28;19913;-46
2022/01/09 12:52:49;;;;;;;;;;;5.50;99.90;;;;;;5090366;28;19933;-47
2022/01/09 12:55:15;;;;;;;;;;;5.70;99.90;;;;;;5092787;28;19912;-52
2022/01/09 12:57:58;;;;;;;;;;;5.60;99.90;;;;;;5087660;28;19913;-46
2022/01/09 13:00:25;;;;;;;;;;;5.70;99.90;;;;;;5091994;28;19921;-49
2022/01/09 13:02:51;;;;;;;;;;;5.40;99.90;;;;;;5057223;28;20463;-46
2022/01/09 13:05:20;;;;;;;;;;;5.30;99.90;;;;;;5073905;28;19916;-46
2022/01/09 13:07:46;;;;;;;;;;;5.20;99.90;;;;;;5074761;28;19912;-53
2022/01/09 13:10:15;;;;;;;;;;;5.30;99.90;;;;;;5093294;28;19912;-50
2022/01/09 13:13:03;;;;;;;;;;;5.30;99.90;;;;;;5091953;28;19919;-49
2022/01/09 13:15:32;;;;;;;;;;;5.20;99.90;;;;;;5092741;28;20013;-52
2022/01/09 13:17:57;;;;;;;;;;;5.30;99.90;;;;;;5093247;28;19916;-55
2022/01/09 13:20:24;;;;;;;;;;;5.40;99.90;;;;;;5092742;28;19957;-52
2022/01/09 13:23:01;;;;;;;;;;;5.30;99.90;;;;;;5092401;28;19936;-51
2022/01/09 13:25:26;;;;;;;;;;;5.40;99.90;;;;;;5093121;28;19924;-49
2022/01/09 13:27:52;;;;;;;;;;;5.30;99.90;;;;;;5092871;28;20343;-56
2022/01/09 13:30:20;;;;;;;;;;;5.30;99.90;;;;;;5091888;28;20007;-47
2022/01/09 13:32:46;;;;;;;;;;;5.40;99.90;;;;;;5092835;28;19916;-52
2022/01/09 13:35:11;;;;;;;;;;;5.40;99.90;;;;;;5073986;28;20273;-52
2022/01/09 13:37:38;;;;;;;;;;;5.40;99.90;;;;;;5092797;28;19937;-52
2022/01/09 13:40:04;;;;;;;;;;;5.40;99.90;;;;;;5088829;28;19995;-54
2022/01/09 13:42:31;;;;;;;;;;;5.50;99.90;;;;;;5093140;28;20011;-50
2022/01/09 13:45:08;;;;;;;;;;;5.50;99.90;;;;;;5092024;28;19955;-52
2022/01/09 13:47:47;;;;;;;;;;;5.40;99.90;;;;;;5093478;28;19912;-52
2022/01/09 13:50:17;;;;;;;;;;;5.20;99.90;;;;;;5092973;28;20369;-51
2022/01/09 13:52:42;;;;;;;;;;;5.10;99.90;;;;;;5092276;28;19964;-51
2022/01/09 13:55:10;;;;;;;;;;;5.20;99.90;;;;;;5092160;28;20388;-55
2022/01/09 13:57:51;;;;;;;;;;;5.00;99.90;;;;;;5092763;28;19916;-50
2022/01/09 14:00:19;;;;;;;;;;;5.00;99.90;;;;;;5074249;28;19908;-48
2022/01/09 14:02:45;;;;;;;;;;;5.00;99.90;;;;;;5094380;28;19923;-49
2022/01/09 14:05:10;;;;;;;;;;;5.10;99.90;;;;;;5095703;28;19965;-49
2022/01/09 14:07:40;;;;;;;;;;;5.20;99.90;;;;;;5096178;28;19916;-50
2022/01/09 14:10:06;;;;;;;;;;;5.30;99.90;;;;;;5094837;28;19912;-51
2022/01/09 14:12:34;;;;;;;;;;;5.20;99.90;;;;;;5095621;28;20270;-47
2022/01/09 14:15:09;;;;;;;;;;;5.20;99.90;;;;;;5096646;28;19969;-49
2022/01/09 14:17:35;;;;;;;;;;;5.10;99.90;;;;;;5096098;28;19935;-50
2022/01/09 14:20:04;;;;;;;;;;;5.20;99.90;;;;;;5095479;28;19912;-51
2022/01/09 14:22:37;;;;;;;;;;;5.00;99.90;;;;;;5095193;28;19947;-48
2022/01/09 14:25:08;;;;;;;;;;;5.00;99.90;;;;;;5095929;28;19916;-48
2022/01/09 14:27:35;;;;;;;;;;;5.10;99.90;;;;;;5095428;28;19981;-48
2022/01/09 14:30:02;;;;;;;;;;;5.00;99.90;;;;;;5096252;28;19935;-51
2022/01/09 14:32:28;;;;;;;;;;;5.00;99.90;;;;;;5095340;28;19965;-50
2022/01/09 14:34:55;;;;;;;;;;;4.90;99.90;;;;;;5095043;28;19916;-52